createdAt,value
2023-01-17T00:02:20.190Z,10.90
2023-01-17T00:05:06.202Z,11.85
2023-01-17T00:07:54.851Z,11.98
2023-01-17T00:10:27.783Z,10.70
2023-01-17T00:13:04.309Z,10.40
2023-01-17T00:15:34.643Z,11.18
2023-01-17T00:18:01.792Z,10.77
2023-01-17T00:20:51.284Z,11.50
2023-01-17T00:23:40.711Z,10.68
2023-01-17T00:26:15.145Z,10.65
2023-01-17T00:28:44.217Z,10.50
2023-01-17T00:31:15.543Z,11.60
2023-01-17T00:33:42.650Z,11.20
2023-01-17T00:36:10.910Z,10.77
2023-01-17T00:38:39.733Z,10.43
2023-01-17T00:41:10.484Z,11.48
2023-01-17T00:43:57.002Z,10.90
2023-01-17T00:46:43.133Z,11.50
2023-01-17T00:49:29.142Z,11.85
2023-01-17T00:52:15.009Z,11.27
2023-01-17T00:55:00.752Z,12.18
2023-01-17T00:57:48.159Z,12.80
2023-01-17T01:00:36.091Z,12.48
2023-01-17T01:03:30.796Z,16.00
2023-01-17T01:06:16.873Z,12.00
2023-01-17T01:09:02.679Z,13.18
2023-01-17T01:11:48.816Z,13.55
2023-01-17T01:14:34.947Z,14.23
2023-01-17T01:17:20.768Z,14.05
2023-01-17T01:20:06.665Z,14.05
2023-01-17T01:22:53.458Z,12.13
2023-01-17T01:25:39.292Z,12.02
2023-01-17T01:28:34.407Z,11.95
2023-01-17T01:31:25.119Z,12.30
2023-01-17T01:33:53.536Z,13.50
2023-01-17T01:36:21.506Z,16.77
2023-01-17T01:38:50.326Z,13.82
2023-01-17T01:41:17.965Z,13.70
2023-01-17T01:43:47.341Z,13.30
2023-01-17T01:46:38.652Z,14.82
2023-01-17T01:49:24.966Z,13.30
2023-01-17T01:52:00.900Z,14.27
2023-01-17T01:54:47.310Z,12.93
2023-01-17T01:57:18.641Z,12.65
2023-01-17T01:59:54.429Z,12.87
2023-01-17T02:02:21.779Z,13.18
2023-01-17T02:04:51.953Z,13.32
2023-01-17T02:07:36.751Z,12.35
2023-01-17T02:10:05.181Z,12.57
2023-01-17T02:12:32.358Z,15.50
2023-01-17T02:15:00.138Z,14.75
2023-01-17T02:17:43.346Z,16.73
2023-01-17T02:21:06.240Z,15.15
2023-01-17T02:24:24.410Z,12.93
2023-01-17T02:27:38.302Z,13.68
2023-01-17T02:30:33.250Z,13.63
2023-01-17T02:33:09.161Z,14.43
2023-01-17T02:35:57.332Z,12.95
2023-01-17T02:38:53.748Z,12.65
2023-01-17T02:41:33.540Z,13.50
2023-01-17T02:44:03.280Z,13.10
2023-01-17T02:46:35.808Z,13.63
2023-01-17T02:49:02.881Z,13.77
2023-01-17T02:52:17.524Z,13.55
2023-01-17T02:55:20.603Z,12.65
2023-01-17T02:58:30.138Z,12.52
2023-01-17T03:01:21.318Z,12.63
2023-01-17T03:04:14.198Z,13.68
2023-01-17T03:06:46.609Z,13.18
2023-01-17T03:09:16.244Z,12.57
2023-01-17T03:11:44.470Z,13.45
2023-01-17T03:14:12.532Z,12.98
2023-01-17T03:16:40.341Z,14.10
2023-01-17T03:19:09.818Z,12.27
2023-01-17T03:21:36.950Z,13.05
2023-01-17T03:24:04.475Z,14.77
2023-01-17T03:26:31.880Z,13.35
2023-01-17T03:28:59.086Z,13.70
2023-01-17T03:31:28.541Z,13.43
2023-01-17T03:33:55.591Z,13.88
2023-01-17T03:36:22.648Z,13.23
2023-01-17T03:38:49.749Z,13.52
2023-01-17T03:41:17.097Z,12.30
2023-01-17T03:43:46.550Z,13.93
2023-01-17T03:46:25.827Z,12.10
2023-01-17T03:48:55.626Z,12.77
2023-01-17T03:51:25.718Z,12.88
2023-01-17T03:53:52.839Z,13.30
2023-01-17T03:56:22.395Z,14.43
2023-01-17T03:58:49.705Z,14.38
2023-01-17T04:01:16.874Z,13.63
2023-01-17T04:03:44.083Z,15.07
2023-01-17T04:06:13.494Z,15.43
2023-01-17T04:08:40.565Z,15.30
2023-01-17T04:11:07.877Z,15.35
2023-01-17T04:13:37.199Z,14.73
2023-01-17T04:16:04.875Z,17.67
2023-01-17T04:18:34.372Z,16.35
2023-01-17T04:21:01.555Z,14.73
2023-01-17T04:23:28.742Z,19.98
2023-01-17T04:25:58.470Z,17.17
2023-01-17T04:28:25.669Z,16.63
2023-01-17T04:30:52.968Z,18.20
2023-01-17T04:33:20.174Z,18.42
2023-01-17T04:35:47.301Z,18.30
2023-01-17T04:38:14.358Z,17.48
2023-01-17T04:40:42.542Z,18.00
2023-01-17T04:43:09.665Z,18.05
2023-01-17T04:45:38.808Z,18.30
2023-01-17T04:48:06.861Z,17.88
2023-01-17T04:50:36.898Z,17.73
2023-01-17T04:53:04.092Z,17.35
2023-01-17T04:55:31.904Z,17.75
2023-01-17T04:57:58.976Z,16.95
2023-01-17T05:00:26.137Z,16.77
2023-01-17T05:02:53.372Z,17.45
2023-01-17T05:05:20.523Z,15.80
2023-01-17T05:07:58.128Z,12.82
2023-01-17T05:10:26.163Z,17.48
2023-01-17T05:12:58.643Z,14.93
2023-01-17T05:15:27.135Z,16.65
2023-01-17T05:17:54.844Z,15.27
2023-01-17T05:20:25.146Z,16.65
2023-01-17T05:22:58.610Z,15.18
2023-01-17T05:25:30.166Z,16.02
2023-01-17T05:28:00.362Z,15.10
2023-01-17T05:30:35.335Z,15.32
2023-01-17T05:33:02.489Z,15.45
2023-01-17T05:35:35.291Z,15.80
2023-01-17T05:38:02.479Z,16.30
2023-01-17T05:40:32.255Z,15.23
2023-01-17T05:43:03.946Z,15.57
2023-01-17T05:45:33.343Z,15.00
2023-01-17T05:48:01.092Z,16.13
2023-01-17T05:50:38.734Z,14.65
2023-01-17T05:53:09.917Z,15.10
2023-01-17T05:55:38.594Z,15.45
2023-01-17T05:58:07.084Z,15.10
2023-01-17T06:00:34.986Z,15.15
2023-01-17T06:03:04.609Z,14.18
2023-01-17T06:05:32.382Z,14.50
2023-01-17T06:08:04.513Z,14.57
2023-01-17T06:10:32.248Z,13.95
2023-01-17T06:13:12.649Z,14.73
2023-01-17T06:15:40.170Z,14.48
2023-01-17T06:18:17.024Z,14.15
2023-01-17T06:20:52.224Z,15.18
2023-01-17T06:23:19.350Z,15.27
2023-01-17T06:25:50.812Z,15.00
2023-01-17T06:28:23.569Z,15.93
2023-01-17T06:30:53.288Z,16.00
2023-01-17T06:33:20.582Z,15.15
2023-01-17T06:35:50.480Z,16.90
2023-01-17T06:38:17.939Z,16.40
2023-01-17T06:40:45.105Z,15.70
2023-01-17T06:43:12.170Z,15.38
2023-01-17T06:45:39.376Z,16.50
2023-01-17T06:48:06.958Z,16.05
2023-01-17T06:50:34.768Z,16.85
2023-01-17T06:53:05.263Z,16.88
2023-01-17T06:55:34.095Z,16.73
2023-01-17T06:58:03.190Z,17.90
2023-01-17T07:00:31.884Z,15.93
2023-01-17T07:02:59.018Z,17.38
2023-01-17T07:05:28.951Z,16.42
2023-01-17T07:07:57.472Z,16.67
2023-01-17T07:10:24.590Z,16.92
2023-01-17T07:12:51.714Z,16.90
2023-01-17T07:15:21.401Z,15.75
2023-01-17T07:17:48.500Z,16.95
2023-01-17T07:20:16.387Z,15.77
2023-01-17T07:22:47.047Z,17.83
2023-01-17T07:25:14.284Z,16.35
2023-01-17T07:27:43.729Z,15.98
2023-01-17T07:30:11.787Z,17.48
2023-01-17T07:32:39.395Z,18.02
2023-01-17T07:35:07.543Z,17.30
2023-01-17T07:37:34.830Z,16.33
2023-01-17T07:40:02.586Z,16.50
2023-01-17T07:42:31.900Z,16.90
2023-01-17T07:45:00.678Z,19.10
2023-01-17T07:47:27.896Z,16.30
2023-01-17T07:49:55.081Z,17.90
2023-01-17T07:52:22.190Z,17.38
2023-01-17T07:54:49.398Z,20.30
2023-01-17T07:57:16.611Z,18.75
2023-01-17T07:59:43.731Z,17.90
2023-01-17T08:02:22.894Z,20.50
2023-01-17T08:04:50.430Z,16.77
2023-01-17T08:07:17.539Z,16.88
2023-01-17T08:09:49.797Z,17.08
2023-01-17T08:12:18.595Z,18.58
2023-01-17T08:14:45.788Z,17.75
2023-01-17T08:17:16.470Z,16.42
2023-01-17T08:19:46.105Z,17.48
2023-01-17T08:22:16.114Z,17.23
2023-01-17T08:27:33.411Z,16.10
2023-01-17T08:30:01.372Z,16.10
2023-01-17T08:32:28.505Z,16.95
2023-01-17T08:34:57.298Z,15.30
2023-01-17T08:37:24.984Z,16.52
2023-01-17T08:39:52.117Z,15.75
2023-01-17T08:42:19.326Z,16.20
2023-01-17T08:44:46.424Z,16.65
2023-01-17T08:47:13.550Z,15.90
2023-01-17T08:49:44.081Z,15.85
2023-01-17T08:52:14.574Z,14.60
2023-01-17T08:54:41.658Z,15.75
2023-01-17T08:57:10.485Z,16.55
2023-01-17T08:59:37.587Z,15.18
2023-01-17T09:02:14.798Z,13.15
2023-01-17T09:04:50.011Z,13.40
2023-01-17T09:07:19.261Z,14.05
2023-01-17T09:09:46.773Z,14.73
2023-01-17T09:12:13.860Z,12.95
2023-01-17T09:14:41.131Z,13.45
2023-01-17T09:17:08.346Z,15.15
2023-01-17T09:19:35.608Z,14.18
2023-01-17T09:22:06.605Z,13.80
2023-01-17T09:24:33.922Z,14.73
2023-01-17T09:27:01.393Z,11.75
2023-01-17T09:29:28.562Z,13.98
2023-01-17T09:31:57.036Z,13.13
2023-01-17T09:34:30.618Z,15.32
2023-01-17T09:36:58.233Z,11.90
2023-01-17T09:39:25.716Z,12.60
2023-01-17T09:42:07.611Z,11.07
2023-01-17T09:44:51.688Z,12.48
2023-01-17T09:47:44.047Z,12.27
2023-01-17T09:50:50.525Z,12.00
2023-01-17T09:53:22.705Z,9.68
2023-01-17T09:56:14.556Z,10.05
2023-01-17T09:59:01.598Z,10.55
2023-01-17T10:01:40.096Z,9.15
2023-01-17T10:04:36.748Z,9.45
2023-01-17T10:07:36.353Z,9.50
2023-01-17T10:10:52.038Z,8.90
2023-01-17T10:13:46.141Z,9.52
2023-01-17T10:16:55.602Z,10.05
2023-01-17T10:20:21.996Z,8.48
2023-01-17T10:23:31.978Z,7.07
2023-01-17T10:26:12.721Z,8.65
2023-01-17T10:28:53.092Z,8.00
2023-01-17T10:31:34.050Z,6.95
2023-01-17T10:34:18.719Z,7.38
2023-01-17T10:36:54.056Z,7.55
2023-01-17T10:39:28.666Z,7.30
2023-01-17T10:42:21.604Z,7.68
2023-01-17T10:44:51.481Z,6.88
2023-01-17T10:47:25.352Z,7.03
2023-01-17T10:49:55.078Z,6.68
2023-01-17T10:52:57.870Z,7.38
2023-01-17T10:57:56.004Z,6.40
2023-01-17T11:01:04.380Z,7.80
2023-01-17T11:03:32.192Z,7.30
2023-01-17T11:06:29.172Z,6.90
2023-01-17T11:09:02.285Z,6.68
2023-01-17T11:11:35.426Z,6.32
2023-01-17T11:14:17.008Z,6.45
2023-01-17T11:16:59.786Z,6.73
2023-01-17T11:19:35.957Z,5.45
2023-01-17T11:22:06.915Z,5.65
2023-01-17T11:24:45.785Z,5.80
2023-01-17T11:27:34.038Z,6.60
2023-01-17T11:30:20.581Z,5.70
2023-01-17T11:33:32.468Z,5.13
2023-01-17T11:35:59.786Z,5.65
2023-01-17T11:38:26.967Z,4.13
2023-01-17T11:41:14.147Z,4.55
2023-01-17T11:44:00.973Z,4.70
2023-01-17T11:46:30.296Z,5.38
2023-01-17T11:49:01.047Z,4.97
2023-01-17T11:51:35.350Z,3.97
2023-01-17T11:54:30.147Z,4.28
2023-01-17T11:57:02.347Z,4.70
2023-01-17T12:02:31.974Z,4.25
2023-01-17T12:05:05.007Z,4.45
2023-01-17T12:08:16.240Z,4.10
2023-01-17T12:11:22.098Z,4.63
2023-01-17T12:15:06.935Z,3.60
2023-01-17T12:17:59.748Z,3.70
2023-01-17T12:20:52.891Z,3.72
2023-01-17T12:23:42.058Z,3.97
2023-01-17T12:26:24.602Z,4.15
2023-01-17T12:29:25.100Z,3.67
2023-01-17T12:32:38.248Z,3.95
2023-01-17T12:35:10.319Z,3.45
2023-01-17T12:37:41.865Z,3.90
2023-01-17T12:40:49.649Z,4.15
2023-01-17T12:43:18.752Z,5.22
2023-01-17T12:45:49.746Z,4.13
2023-01-17T12:48:22.078Z,4.13
2023-01-17T12:50:58.542Z,4.10
2023-01-17T12:53:47.107Z,4.97
2023-01-17T12:56:32.662Z,5.05
2023-01-17T13:02:36.568Z,4.50
2023-01-17T13:05:23.872Z,4.68
2023-01-17T13:08:05.547Z,4.45
2023-01-17T13:11:09.382Z,6.10
2023-01-17T13:13:36.847Z,4.97
2023-01-17T13:16:21.800Z,4.13
2023-01-17T13:18:51.702Z,4.28
2023-01-17T13:21:27.656Z,4.18
2023-01-17T13:23:59.214Z,3.78
2023-01-17T13:26:55.809Z,4.22
2023-01-17T13:29:46.364Z,4.13
2023-01-17T13:32:47.384Z,3.83
2023-01-17T13:35:38.390Z,5.53
2023-01-17T13:38:36.117Z,3.83
2023-01-17T13:41:36.959Z,5.47
2023-01-17T13:44:23.142Z,5.57
2023-01-17T13:47:17.231Z,4.50
2023-01-17T13:49:49.779Z,3.67
2023-01-17T13:52:19.654Z,3.80
2023-01-17T13:55:04.272Z,3.85
2023-01-17T13:57:48.116Z,4.78
2023-01-17T14:00:21.524Z,6.13
2023-01-17T14:02:53.320Z,5.97
2023-01-17T14:05:41.707Z,6.00
2023-01-17T14:08:21.966Z,6.53
2023-01-17T14:10:53.540Z,5.88
2023-01-17T14:13:40.043Z,6.22
2023-01-17T14:16:25.516Z,6.70
2023-01-17T14:18:54.347Z,6.07
2023-01-17T14:21:29.125Z,5.40
2023-01-17T14:24:10.655Z,5.93
2023-01-17T14:26:59.478Z,8.37
2023-01-17T14:29:59.326Z,8.55
2023-01-17T14:32:37.859Z,10.30
2023-01-17T14:35:09.296Z,14.32
2023-01-17T14:37:54.700Z,11.57
2023-01-17T14:40:30.857Z,10.35
2023-01-17T14:43:15.855Z,11.82
2023-01-17T14:45:48.400Z,11.68
2023-01-17T14:48:21.711Z,9.68
2023-01-17T14:50:54.848Z,10.63
2023-01-17T14:53:32.037Z,13.73
2023-01-17T14:56:16.931Z,15.77
2023-01-17T14:58:46.723Z,18.73
2023-01-17T15:01:18.752Z,15.23
2023-01-17T15:03:49.506Z,13.57
2023-01-17T15:06:49.063Z,10.63
2023-01-17T15:09:24.150Z,9.88
2023-01-17T15:11:55.029Z,11.65
2023-01-17T15:14:29.072Z,11.05
2023-01-17T15:16:58.652Z,9.40
2023-01-17T15:19:25.746Z,12.23
2023-01-17T15:21:54.306Z,13.23
2023-01-17T15:24:34.516Z,12.38
2023-01-17T15:27:02.372Z,12.43
2023-01-17T15:29:33.720Z,12.35
2023-01-17T15:32:04.166Z,11.13
2023-01-17T15:34:38.876Z,11.40
2023-01-17T15:37:21.489Z,11.45
2023-01-17T15:39:49.322Z,10.38
2023-01-17T15:42:28.549Z,10.15
2023-01-17T15:45:00.922Z,10.88
2023-01-17T15:47:39.146Z,11.40
2023-01-17T15:50:39.833Z,12.95
2023-01-17T15:53:32.619Z,12.55
2023-01-17T15:56:00.536Z,13.60
2023-01-17T15:58:30.341Z,13.73
2023-01-17T16:00:58.082Z,15.95
2023-01-17T16:03:31.002Z,14.02
2023-01-17T16:06:01.021Z,12.40
2023-01-17T16:08:39.661Z,11.85
2023-01-17T16:11:10.678Z,13.70
2023-01-17T16:13:47.312Z,13.38
2023-01-17T16:16:23.429Z,17.27
2023-01-17T16:19:03.486Z,17.95
2023-01-17T16:21:32.060Z,17.63
2023-01-17T16:24:00.644Z,15.57
2023-01-17T16:26:29.444Z,14.77
2023-01-17T16:28:56.871Z,14.80
2023-01-17T16:31:24.156Z,12.32
2023-01-17T16:33:52.037Z,17.65
2023-01-17T16:36:20.917Z,13.68
2023-01-17T16:38:51.526Z,12.82
2023-01-17T16:41:19.713Z,11.23
2023-01-17T16:43:56.233Z,12.20
2023-01-17T16:46:23.690Z,9.77
2023-01-17T16:48:53.130Z,9.50
2023-01-17T16:51:20.276Z,8.30
2023-01-17T16:53:47.477Z,7.57
2023-01-17T16:56:17.881Z,8.35
2023-01-17T16:58:45.079Z,8.20
2023-01-17T17:01:17.925Z,6.68
2023-01-17T17:03:47.608Z,6.50
2023-01-17T17:06:17.159Z,5.60
2023-01-17T17:08:45.070Z,4.82
2023-01-17T17:11:17.843Z,5.05
2023-01-17T17:13:47.817Z,5.53
2023-01-17T17:16:19.526Z,6.53
2023-01-17T17:18:54.584Z,6.00
2023-01-17T17:21:21.824Z,5.85
2023-01-17T17:23:56.750Z,5.95
2023-01-17T17:26:27.318Z,5.20
2023-01-17T17:28:54.845Z,5.45
2023-01-17T17:31:22.096Z,4.93
2023-01-17T17:33:51.907Z,5.78
2023-01-17T17:36:21.490Z,5.57
2023-01-17T17:38:51.617Z,6.65
2023-01-17T17:41:22.840Z,6.63
2023-01-17T17:43:51.210Z,7.50
2023-01-17T17:46:20.803Z,6.85
2023-01-17T17:48:53.381Z,7.07
2023-01-17T17:51:53.027Z,6.72
2023-01-17T17:54:22.199Z,9.00
2023-01-17T17:56:49.427Z,8.48
2023-01-17T17:59:19.883Z,8.70
2023-01-17T18:01:50.370Z,9.75
2023-01-17T18:04:18.579Z,9.63
2023-01-17T18:06:48.366Z,10.82
2023-01-17T18:09:16.003Z,9.23
2023-01-17T18:11:44.540Z,10.85
2023-01-17T18:14:15.254Z,10.13
2023-01-17T18:16:44.912Z,10.88
2023-01-17T18:19:22.227Z,13.05
2023-01-17T18:21:52.829Z,12.90
2023-01-17T18:24:23.402Z,14.75
2023-01-17T18:26:59.228Z,14.73
2023-01-17T18:29:27.738Z,15.15
2023-01-17T18:31:57.597Z,13.35
2023-01-17T18:34:29.336Z,15.23
2023-01-17T18:36:59.428Z,13.68
2023-01-17T18:39:29.439Z,13.57
2023-01-17T18:41:57.582Z,15.55
2023-01-17T18:44:30.177Z,17.63
2023-01-17T18:47:04.517Z,23.55
2023-01-17T18:49:34.115Z,21.15
2023-01-17T18:52:03.841Z,22.98
2023-01-17T18:54:33.457Z,21.70
2023-01-17T18:57:00.607Z,19.17
2023-01-17T18:59:27.766Z,19.05
2023-01-17T19:01:55.226Z,18.55
2023-01-17T19:04:22.512Z,17.20
2023-01-17T19:06:49.660Z,18.45
2023-01-17T19:09:17.410Z,15.82
2023-01-17T19:11:45.482Z,17.65
2023-01-17T19:14:15.872Z,16.27
2023-01-17T19:16:43.315Z,16.70
2023-01-17T19:19:14.813Z,16.50
2023-01-17T19:21:42.013Z,17.75
2023-01-17T19:24:13.242Z,17.13
2023-01-17T19:26:41.225Z,19.15
2023-01-17T19:29:10.774Z,17.88
2023-01-17T19:31:42.508Z,20.42
2023-01-17T19:34:10.472Z,17.30
2023-01-17T19:36:38.734Z,16.48
2023-01-17T19:39:09.591Z,16.13
2023-01-17T19:41:42.815Z,15.57
2023-01-17T19:44:12.742Z,15.68
2023-01-17T19:46:39.969Z,16.77
2023-01-17T19:49:08.771Z,18.80
2023-01-17T19:51:36.364Z,23.15
2023-01-17T19:54:05.197Z,22.90
2023-01-17T19:56:32.602Z,20.70
2023-01-17T19:59:02.414Z,20.08
2023-01-17T20:01:32.531Z,21.55
2023-01-17T20:04:04.207Z,22.05
2023-01-17T20:06:35.590Z,22.80
2023-01-17T20:09:06.700Z,20.30
2023-01-17T20:11:34.496Z,21.17
2023-01-17T20:14:05.668Z,23.42
2023-01-17T20:16:39.217Z,26.65
2023-01-17T20:19:06.392Z,24.63
2023-01-17T20:21:34.506Z,24.75
2023-01-17T20:24:04.889Z,24.30
2023-01-17T20:26:35.209Z,22.80
2023-01-17T20:29:12.464Z,24.48
2023-01-17T20:31:44.126Z,24.50
2023-01-17T20:34:14.499Z,25.88
2023-01-17T20:36:42.232Z,24.45
2023-01-17T20:39:12.506Z,23.98
2023-01-17T20:41:42.436Z,24.30
2023-01-17T20:44:16.657Z,23.60
2023-01-17T20:46:47.872Z,27.90
2023-01-17T20:49:19.180Z,23.63
2023-01-17T20:51:47.343Z,15.43
2023-01-17T20:54:17.768Z,22.20
2023-01-17T20:56:47.996Z,22.40
2023-01-17T20:59:22.351Z,22.40
2023-01-17T21:01:52.212Z,24.10
2023-01-17T21:04:25.728Z,24.33
2023-01-17T21:06:54.810Z,26.38
2023-01-17T21:09:25.011Z,28.83
2023-01-17T21:11:52.921Z,31.60
2023-01-17T21:14:21.809Z,29.13
2023-01-17T21:16:51.570Z,31.65
2023-01-17T21:19:20.516Z,34.70
2023-01-17T21:21:51.240Z,31.90
2023-01-17T21:24:19.652Z,31.13
2023-01-17T21:26:47.383Z,32.22
2023-01-17T21:29:16.230Z,32.55
2023-01-17T21:31:43.709Z,33.25
2023-01-17T21:34:14.691Z,32.58
2023-01-17T21:36:43.345Z,33.20
2023-01-17T21:39:15.899Z,31.73
2023-01-17T21:41:49.651Z,35.17
2023-01-17T21:44:21.042Z,37.83
2023-01-17T21:46:49.361Z,41.47
2023-01-17T21:49:17.261Z,44.58
2023-01-17T21:51:53.813Z,46.95
2023-01-17T21:54:49.400Z,48.30
2023-01-17T21:57:40.326Z,47.28
2023-01-17T22:00:14.536Z,49.50
2023-01-17T22:02:45.886Z,54.88
2023-01-17T22:05:16.457Z,42.00
2023-01-17T22:08:04.962Z,53.75
2023-01-17T22:10:32.789Z,52.08
2023-01-17T22:13:02.233Z,40.45
2023-01-17T22:15:29.392Z,34.75
2023-01-17T22:17:59.323Z,37.75
2023-01-17T22:20:29.088Z,34.20
2023-01-17T22:22:56.705Z,33.40
2023-01-17T22:25:26.460Z,33.53
2023-01-17T22:27:56.319Z,35.67
2023-01-17T22:30:26.063Z,41.55
2023-01-17T22:32:55.241Z,71.80
2023-01-17T22:35:23.241Z,74.90
2023-01-17T22:37:52.741Z,50.78
2023-01-17T22:40:22.424Z,45.25
2023-01-17T22:42:49.486Z,40.47
2023-01-17T22:45:17.464Z,43.03
2023-01-17T22:47:44.762Z,42.72
2023-01-17T22:50:12.360Z,43.33
2023-01-17T22:52:39.418Z,42.05
2023-01-17T22:55:06.978Z,43.92
2023-01-17T22:57:34.644Z,44.33
2023-01-17T23:00:01.818Z,41.85
2023-01-17T23:02:31.481Z,37.53
2023-01-17T23:04:58.702Z,34.80
2023-01-17T23:07:31.084Z,34.20
2023-01-17T23:09:58.163Z,33.10
2023-01-17T23:12:25.186Z,33.83
2023-01-17T23:15:11.050Z,31.08
2023-01-17T23:17:56.821Z,30.83
2023-01-17T23:20:24.015Z,30.92
2023-01-17T23:22:51.890Z,31.65
2023-01-17T23:25:19.192Z,27.83
2023-01-17T23:28:05.637Z,28.10
2023-01-17T23:30:40.507Z,31.77
2023-01-17T23:33:14.602Z,52.40
2023-01-17T23:35:45.010Z,69.55
2023-01-17T23:38:25.945Z,53.80
2023-01-17T23:41:22.056Z,52.75
2023-01-17T23:43:58.182Z,53.85
2023-01-17T23:46:27.217Z,45.08
2023-01-17T23:48:55.199Z,47.50
2023-01-17T23:51:22.491Z,46.67
2023-01-17T23:53:51.013Z,44.88
2023-01-17T23:56:23.706Z,47.38
2023-01-17T23:58:51.098Z,43.67
